Terminal Aerodrome Forecast
Issued by NWS

Home | Current Version | Previous Version | Text Only | Print | Product List | Glossary On
Versions: 1 2 3 4 5 6 7 8 9 10 11 12 13
000
FTUS43 KDTX 301100
TAFDET
TAF
KDET 301128Z 3012/3112 18010KT P6SM SCT070 BKN200
     FM301900 20013G22KT 5SM -SHRA OVC040 PROB30 3021/3024 5SM -TSRA
      OVC025CB
     FM310300 21012KT P6SM -SHRA OVC030
     FM310900 23007KT 4SM BR OVC015=

USA.gov is the U.S. government's official web portal to all federal, state and local government web resources and services.